Terminal Aerodrome Forecast
Issued by NWS

Home | Current Version | Previous Version | Text Only | Print | Product List | Glossary On
Versions: 1 2 3 4 5 6 7 8 9 10 11 12 13 14 15 16 17 18
028
FTUS46 KPDT 241139
TAFRDM
TAF
KRDM 241139Z 2412/2512 VRB05KT P6SM SCT050
     FM241900 32010KT P6SM SCT070
     FM242200 33012G20KT P6SM SCT070
     FM250400 31005KT P6SM BKN060
     FM250800 20004KT P6SM BKN050=

USA.gov is the U.S. government's official web portal to all federal, state and local government web resources and services.